BIENTÔT MET'MAP
version 2.0 !

Prévue avant fin octobre,
la nouvelle version sera
plus belle, plus complète
et hébergée sur un serveur
3 fois plus puissant...
et toujours gratuite !


Pas compatible ?
Essayez la version Mobile !

SE CONNECTER : | S'inscrire | Disclaimer | Découvrir Orbifly |
Code OACI :
Lgende : VFR VFR Marginal IFR IFR Intensif IFR Trs Intensif
Visi :
Plafond :
>= 8 km
>= 3000ft
5 8 km
1000 3000 ft
1500m 5 km
500 1000 ft
800 1500m
200 500 ft
< 800m
< 200 ft

METAR - EPSN Swidwin - 21 Feb 2020 17:41 UTC - Data Source NOAA   


- Altitude de l'aérodrome : 385 ft
- Pas de NOTAMs connus.


EPSN - Swidwin

PAS DE METAR
TAF TAF EPSN
Valide du 21 à 15h jusqu'au 22 à 00h UTC


211400Z 2115/2124 28012KT 9999 BKN027
PROB30
TEMPO 2115/2118 28015G28KT 6000 SHRA BKN012CB
BECMG 2118/2121 21015KT
BECMG 2121/2124 BKN012

Source NOAA


MET'MAP, la Météo Aéronautique d'un coup d'oeil ! - Copyright ORBIFLY Décembre 2007

Développement & Programmation : Alexandra Zaïnal
Co-Développement : Marc-Olivier Méhu
Soutien technique & logistique : Manuel Goepfert
Conception & Financement : Baudouin d'Aumeries